createdAt,value
2023-01-15T00:02:54.890Z,3.38
2023-01-15T00:07:57.309Z,3.58
2023-01-15T00:12:59.789Z,3.40
2023-01-15T00:18:05.135Z,2.58
2023-01-15T00:23:27.592Z,2.38
2023-01-15T00:28:31.099Z,2.63
2023-01-15T00:38:37.148Z,2.75
2023-01-15T00:43:39.601Z,2.65
2023-01-15T00:48:42.139Z,2.25
2023-01-15T00:53:46.127Z,2.73
2023-01-15T00:58:48.545Z,2.47
2023-01-15T01:03:52.881Z,2.90
2023-01-15T01:08:56.767Z,2.95
2023-01-15T01:13:59.286Z,3.08
2023-01-15T01:19:03.639Z,2.63
2023-01-15T01:24:08.140Z,2.42
2023-01-15T01:29:13.077Z,2.33
2023-01-15T01:34:15.927Z,2.65
2023-01-15T01:39:20.173Z,2.42
2023-01-15T01:44:42.598Z,3.22
2023-01-15T01:49:45.897Z,3.38
2023-01-15T01:54:50.868Z,2.47
2023-01-15T01:59:53.510Z,3.35
2023-01-15T02:04:55.972Z,3.50
2023-01-15T02:09:59.751Z,2.80
2023-01-15T02:15:06.831Z,2.47
2023-01-15T02:20:19.026Z,2.45
2023-01-15T02:25:26.722Z,2.75
2023-01-15T02:30:32.764Z,2.63
2023-01-15T02:35:37.529Z,2.70
2023-01-15T02:40:40.259Z,3.15
2023-01-15T02:45:45.509Z,3.07
2023-01-15T02:50:50.125Z,2.50
2023-01-15T02:55:54.604Z,3.28
2023-01-15T03:00:59.511Z,4.10
2023-01-15T03:06:05.466Z,2.90
2023-01-15T03:11:09.261Z,3.50
2023-01-15T03:16:33.493Z,2.67
2023-01-15T03:21:39.289Z,2.97
2023-01-15T03:26:42.136Z,3.20
2023-01-15T03:31:45.900Z,3.00
2023-01-15T03:36:48.279Z,2.65
2023-01-15T03:41:56.335Z,2.63
2023-01-15T03:47:05.520Z,2.92
2023-01-15T03:52:12.663Z,3.28
2023-01-15T03:57:16.568Z,2.88
2023-01-15T04:02:21.735Z,2.50
2023-01-15T04:07:24.321Z,2.70
2023-01-15T04:12:28.035Z,3.37
2023-01-15T04:17:31.824Z,2.83
2023-01-15T04:22:36.016Z,2.75
2023-01-15T04:27:38.348Z,3.20
2023-01-15T04:32:42.099Z,2.28
2023-01-15T04:37:44.611Z,2.35
2023-01-15T04:43:04.411Z,2.80
2023-01-15T04:48:08.273Z,2.78
2023-01-15T04:53:10.627Z,2.22
2023-01-15T04:58:13.023Z,2.45
2023-01-15T05:03:16.723Z,2.90
2023-01-15T05:08:19.198Z,2.85
2023-01-15T05:13:21.590Z,2.58
2023-01-15T05:18:25.288Z,2.38
2023-01-15T05:23:27.663Z,2.53
2023-01-15T05:28:30.033Z,3.03
2023-01-15T05:33:33.798Z,2.85
2023-01-15T05:38:36.681Z,3.03
2023-01-15T05:43:39.072Z,3.40
2023-01-15T05:48:42.835Z,3.33
2023-01-15T05:53:45.316Z,2.75
2023-01-15T05:58:48.407Z,3.70
2023-01-15T06:03:53.571Z,2.75
2023-01-15T06:08:56.085Z,3.03
2023-01-15T06:13:58.516Z,2.72
2023-01-15T06:19:04.017Z,3.13
2023-01-15T06:24:07.119Z,2.70
2023-01-15T06:29:09.580Z,2.83
2023-01-15T06:34:13.341Z,3.25
2023-01-15T06:39:16.343Z,2.47
2023-01-15T06:44:36.961Z,2.83
2023-01-15T06:49:40.783Z,2.80
2023-01-15T06:54:43.208Z,2.88
2023-01-15T06:59:45.825Z,2.60
2023-01-15T07:04:49.898Z,3.40
2023-01-15T07:09:52.302Z,3.20
2023-01-15T07:14:54.672Z,2.58
2023-01-15T07:19:58.393Z,1.98
2023-01-15T07:25:00.802Z,1.92
2023-01-15T07:30:03.282Z,2.03
2023-01-15T07:35:07.503Z,2.20
2023-01-15T07:40:10.861Z,2.45
2023-01-15T07:45:30.769Z,2.38
2023-01-15T07:50:35.186Z,2.50
2023-01-15T07:55:40.181Z,3.15
2023-01-15T08:00:43.301Z,2.35
2023-01-15T08:05:47.945Z,3.85
2023-01-15T08:11:08.824Z,2.63
2023-01-15T08:16:13.531Z,2.92
2023-01-15T08:21:18.163Z,2.35
2023-01-15T08:26:21.391Z,3.03
2023-01-15T08:31:26.536Z,2.60
2023-01-15T08:36:33.747Z,3.45
2023-01-15T08:41:40.533Z,2.45
2023-01-15T08:46:48.496Z,2.38
2023-01-15T08:52:12.343Z,3.25
2023-01-15T08:57:15.654Z,2.37
2023-01-15T09:02:18.916Z,2.60
2023-01-15T09:07:22.743Z,2.55
2023-01-15T09:12:27.331Z,2.17
2023-01-15T09:17:29.745Z,2.30
2023-01-15T09:22:33.610Z,2.50
2023-01-15T09:27:37.785Z,2.25
2023-01-15T09:32:40.261Z,2.60
2023-01-15T09:37:44.057Z,1.98
2023-01-15T09:42:49.128Z,2.42
2023-01-15T09:48:03.290Z,2.50
2023-01-15T09:53:12.056Z,2.35
2023-01-15T09:58:16.861Z,1.92
2023-01-15T10:03:24.875Z,2.58
2023-01-15T10:08:30.071Z,2.20
2023-01-15T10:13:35.264Z,2.83
2023-01-15T10:18:37.744Z,2.50
2023-01-15T10:23:45.978Z,2.20
2023-01-15T10:28:53.744Z,2.42
2023-01-15T10:34:04.282Z,2.33
2023-01-15T10:39:16.090Z,2.83
2023-01-15T10:44:20.554Z,2.50
2023-01-15T10:49:23.002Z,2.35
2023-01-15T10:54:28.352Z,2.17
2023-01-15T10:59:36.591Z,2.60
2023-01-15T11:04:39.035Z,2.50
2023-01-15T11:09:42.907Z,2.90
2023-01-15T11:15:03.504Z,2.63
2023-01-15T11:20:11.828Z,2.60
2023-01-15T11:25:25.747Z,2.42
2023-01-15T11:30:30.644Z,3.38
2023-01-15T11:35:33.692Z,2.47
2023-01-15T11:40:37.480Z,2.10
2023-01-15T11:46:13.533Z,2.33
2023-01-15T11:51:17.464Z,1.95
2023-01-15T11:56:23.295Z,2.58
2023-01-15T12:01:27.409Z,2.17
2023-01-15T12:06:30.923Z,3.10
2023-01-15T12:16:42.324Z,2.38
2023-01-15T12:21:57.627Z,3.13
2023-01-15T12:27:07.197Z,2.45
2023-01-15T12:32:15.777Z,2.40
2023-01-15T12:37:22.593Z,2.00
2023-01-15T12:42:43.912Z,1.83
2023-01-15T12:47:50.743Z,2.80
2023-01-15T12:52:58.526Z,2.10
2023-01-15T12:58:02.715Z,3.22
2023-01-15T13:03:11.366Z,2.17
2023-01-15T13:08:16.962Z,2.22
2023-01-15T13:13:20.607Z,2.35
2023-01-15T13:18:29.125Z,2.35
2023-01-15T13:23:40.015Z,2.38
2023-01-15T13:28:51.299Z,2.38
2023-01-15T13:33:56.096Z,2.28
2023-01-15T13:39:01.582Z,2.53
2023-01-15T13:44:05.087Z,2.00
2023-01-15T13:49:17.044Z,3.00
2023-01-15T13:54:20.567Z,2.88
2023-01-15T14:04:34.892Z,3.38
2023-01-15T14:09:37.305Z,3.17
2023-01-15T14:14:50.468Z,3.38
2023-01-15T14:20:01.240Z,2.67
2023-01-15T14:25:18.528Z,3.00
2023-01-15T14:30:32.336Z,3.10
2023-01-15T14:35:37.610Z,3.20
2023-01-15T14:40:42.429Z,3.65
2023-01-15T14:45:46.605Z,4.57
2023-01-15T14:50:50.623Z,3.60
2023-01-15T14:55:54.416Z,3.40
2023-01-15T15:00:59.248Z,3.45
2023-01-15T15:06:03.450Z,2.92
2023-01-15T15:11:27.683Z,2.60
2023-01-15T15:16:31.920Z,3.03
2023-01-15T15:21:38.708Z,3.00
2023-01-15T15:26:41.465Z,3.67
2023-01-15T15:31:45.676Z,2.83
2023-01-15T15:36:49.639Z,3.08
2023-01-15T15:42:11.057Z,3.00
2023-01-15T15:47:41.908Z,3.30
2023-01-15T15:52:46.120Z,2.90
2023-01-15T15:57:49.597Z,3.58
2023-01-15T16:07:56.442Z,3.20
2023-01-15T16:12:59.784Z,3.63
2023-01-15T16:18:02.779Z,2.90
2023-01-15T16:23:06.758Z,3.10
2023-01-15T16:28:23.805Z,3.03
2023-01-15T16:33:26.488Z,4.20
2023-01-15T16:38:30.256Z,3.57
2023-01-15T16:43:33.171Z,5.55
2023-01-15T16:48:38.227Z,4.20
2023-01-15T16:53:42.089Z,4.18
2023-01-15T16:58:44.671Z,3.92
2023-01-15T17:03:47.147Z,4.13
2023-01-15T17:08:51.397Z,4.32
2023-01-15T17:14:07.920Z,5.10
2023-01-15T17:19:11.698Z,5.10
2023-01-15T17:24:15.772Z,4.50
2023-01-15T17:29:18.192Z,4.65
2023-01-15T17:34:25.096Z,5.00
2023-01-15T17:39:33.031Z,3.75
2023-01-15T17:44:37.214Z,3.80
2023-01-15T17:49:39.844Z,3.30
2023-01-15T17:55:01.299Z,5.60
2023-01-15T18:00:21.221Z,4.10
2023-01-15T18:05:32.942Z,3.13
2023-01-15T18:10:37.046Z,2.90
2023-01-15T18:15:39.645Z,3.00
2023-01-15T18:20:42.166Z,4.47
2023-01-15T18:25:47.793Z,7.55
2023-01-15T18:30:50.189Z,5.63
2023-01-15T18:36:02.064Z,5.90
2023-01-15T18:41:11.412Z,5.03
2023-01-15T18:46:31.416Z,4.70
2023-01-15T18:51:35.969Z,4.10
2023-01-15T18:56:42.377Z,4.57
2023-01-15T19:01:44.966Z,4.20
2023-01-15T19:06:47.661Z,3.57
2023-01-15T19:11:52.049Z,3.60
2023-01-15T19:17:12.115Z,3.20
2023-01-15T19:22:31.962Z,3.60
2023-01-15T19:27:35.713Z,3.83
2023-01-15T19:32:38.265Z,3.30
2023-01-15T19:37:40.767Z,4.10
2023-01-15T19:43:01.974Z,3.20
2023-01-15T19:48:22.151Z,4.38
2023-01-15T19:53:24.833Z,5.28
2023-01-15T19:58:31.528Z,2.37
2023-01-15T20:03:34.406Z,3.58
2023-01-15T20:08:36.799Z,2.00
2023-01-15T20:13:53.750Z,2.80
2023-01-15T20:18:56.418Z,2.72
2023-01-15T20:23:58.798Z,3.53
2023-01-15T20:29:02.523Z,2.50
2023-01-15T20:34:06.343Z,3.13
2023-01-15T20:39:08.950Z,2.25
2023-01-15T20:44:31.764Z,2.90
2023-01-15T20:49:35.028Z,3.10
2023-01-15T20:54:37.924Z,3.38
2023-01-15T20:59:41.724Z,2.90
2023-01-15T21:04:44.255Z,3.60
2023-01-15T21:09:46.699Z,2.70
2023-01-15T21:14:50.489Z,3.03
2023-01-15T21:19:52.906Z,3.45
2023-01-15T21:24:55.274Z,3.83
2023-01-15T21:29:59.105Z,4.10
2023-01-15T21:35:01.544Z,2.92
2023-01-15T21:40:04.267Z,3.13
2023-01-15T21:45:09.113Z,2.47
2023-01-15T21:50:11.690Z,4.68
2023-01-15T21:55:14.173Z,3.65
2023-01-15T22:00:20.490Z,2.92
2023-01-15T22:05:23.041Z,2.47
2023-01-15T22:10:25.478Z,3.03
2023-01-15T22:15:29.264Z,3.20
2023-01-15T22:20:31.627Z,2.53
2023-01-15T22:25:35.003Z,2.60
2023-01-15T22:30:40.279Z,3.05
2023-01-15T22:35:42.849Z,2.35
2023-01-15T22:40:45.237Z,2.53
2023-01-15T22:45:48.989Z,2.97
2023-01-15T22:50:51.358Z,2.00
2023-01-15T22:55:55.738Z,2.42
2023-01-15T23:00:59.497Z,2.53
2023-01-15T23:06:03.438Z,2.60
2023-01-15T23:11:09.388Z,2.58
2023-01-15T23:16:13.258Z,2.78
2023-01-15T23:21:16.538Z,2.90
2023-01-15T23:26:18.931Z,2.85
2023-01-15T23:31:22.998Z,2.70
2023-01-15T23:36:25.460Z,2.70
2023-01-15T23:41:45.245Z,2.70
2023-01-15T23:46:49.008Z,2.60
2023-01-15T23:51:51.363Z,2.05
2023-01-15T23:56:53.798Z,2.05
